sensor_id;sensor_type;location;lat;lon;timestamp;P1;durP1;ratioP1;P2;durP2;ratioP2
23617;SDS011;18207;32.078;34.818;2023-06-22T00:00:50;1.60;;;1.50;;
23617;SDS011;18207;32.078;34.818;2023-06-22T00:03:24;1.67;;;1.58;;
23617;SDS011;18207;32.078;34.818;2023-06-22T00:05:55;1.60;;;1.50;;
23617;SDS011;18207;32.078;34.818;2023-06-22T00:08:26;1.70;;;1.60;;
23617;SDS011;18207;32.078;34.818;2023-06-22T00:10:56;1.23;;;1.23;;
23617;SDS011;18207;32.078;34.818;2023-06-22T00:13:26;1.80;;;1.70;;
23617;SDS011;18207;32.078;34.818;2023-06-22T00:15:56;1.58;;;1.48;;
23617;SDS011;18207;32.078;34.818;2023-06-22T00:18:28;1.50;;;1.40;;
23617;SDS011;18207;32.078;34.818;2023-06-22T00:20:59;1.80;;;1.70;;
23617;SDS011;18207;32.078;34.818;2023-06-22T00:23:30;1.60;;;1.50;;
23617;SDS011;18207;32.078;34.818;2023-06-22T00:26:01;1.55;;;1.55;;
23617;SDS011;18207;32.078;34.818;2023-06-22T00:28:31;1.70;;;1.60;;
23617;SDS011;18207;32.078;34.818;2023-06-22T00:31:03;1.67;;;1.58;;
23617;SDS011;18207;32.078;34.818;2023-06-22T00:33:35;1.52;;;1.42;;
23617;SDS011;18207;32.078;34.818;2023-06-22T00:36:05;1.80;;;1.70;;
23617;SDS011;18207;32.078;34.818;2023-06-22T00:38:40;1.73;;;1.63;;
23617;SDS011;18207;32.078;34.818;2023-06-22T00:41:10;1.90;;;1.80;;
23617;SDS011;18207;32.078;34.818;2023-06-22T00:43:40;2.20;;;2.00;;
23617;SDS011;18207;32.078;34.818;2023-06-22T00:46:11;2.50;;;2.30;;
23617;SDS011;18207;32.078;34.818;2023-06-22T00:48:44;2.38;;;2.20;;
23617;SDS011;18207;32.078;34.818;2023-06-22T00:51:14;2.50;;;2.30;;
23617;SDS011;18207;32.078;34.818;2023-06-22T00:53:51;2.65;;;2.47;;
23617;SDS011;18207;32.078;34.818;2023-06-22T00:56:22;2.85;;;2.65;;
23617;SDS011;18207;32.078;34.818;2023-06-22T00:58:57;2.97;;;2.78;;
23617;SDS011;18207;32.078;34.818;2023-06-22T01:01:30;2.83;;;2.63;;
23617;SDS011;18207;32.078;34.818;2023-06-22T01:04:03;2.75;;;2.55;;
23617;SDS011;18207;32.078;34.818;2023-06-22T01:06:35;2.55;;;2.35;;
23617;SDS011;18207;32.078;34.818;2023-06-22T01:09:25;2.70;;;2.50;;
23617;SDS011;18207;32.078;34.818;2023-06-22T01:12:01;2.60;;;2.47;;
23617;SDS011;18207;32.078;34.818;2023-06-22T01:14:37;2.85;;;2.65;;
23617;SDS011;18207;32.078;34.818;2023-06-22T01:17:16;2.40;;;2.30;;
23617;SDS011;18207;32.078;34.818;2023-06-22T01:19:51;2.65;;;2.45;;
23617;SDS011;18207;32.078;34.818;2023-06-22T01:22:26;2.97;;;2.78;;
23617;SDS011;18207;32.078;34.818;2023-06-22T01:25:05;2.83;;;2.63;;
23617;SDS011;18207;32.078;34.818;2023-06-22T01:30:56;2.75;;;2.55;;
23617;SDS011;18207;32.078;34.818;2023-06-22T01:33:33;3.17;;;2.90;;
23617;SDS011;18207;32.078;34.818;2023-06-22T01:36:07;3.00;;;2.80;;
23617;SDS011;18207;32.078;34.818;2023-06-22T01:38:38;3.70;;;3.33;;
23617;SDS011;18207;32.078;34.818;2023-06-22T01:41:11;3.60;;;3.30;;
23617;SDS011;18207;32.078;34.818;2023-06-22T01:43:41;3.53;;;3.22;;
23617;SDS011;18207;32.078;34.818;2023-06-22T01:46:16;3.65;;;3.33;;
23617;SDS011;18207;32.078;34.818;2023-06-22T01:48:48;3.53;;;3.25;;
23617;SDS011;18207;32.078;34.818;2023-06-22T01:51:20;3.90;;;3.63;;
23617;SDS011;18207;32.078;34.818;2023-06-22T01:53:51;4.38;;;4.00;;
23617;SDS011;18207;32.078;34.818;2023-06-22T01:56:21;5.25;;;4.07;;
23617;SDS011;18207;32.078;34.818;2023-06-22T01:58:54;4.20;;;3.90;;
23617;SDS011;18207;32.078;34.818;2023-06-22T02:01:38;3.75;;;3.45;;
23617;SDS011;18207;32.078;34.818;2023-06-22T02:04:19;4.18;;;3.88;;
23617;SDS011;18207;32.078;34.818;2023-06-22T02:06:55;4.18;;;3.88;;
23617;SDS011;18207;32.078;34.818;2023-06-22T02:09:29;4.07;;;3.72;;
23617;SDS011;18207;32.078;34.818;2023-06-22T02:12:03;4.03;;;3.72;;
23617;SDS011;18207;32.078;34.818;2023-06-22T02:14:37;4.22;;;3.83;;
23617;SDS011;18207;32.078;34.818;2023-06-22T02:17:10;4.88;;;4.47;;
23617;SDS011;18207;32.078;34.818;2023-06-22T02:19:41;4.18;;;3.88;;
23617;SDS011;18207;32.078;34.818;2023-06-22T02:22:12;4.38;;;3.97;;
23617;SDS011;18207;32.078;34.818;2023-06-22T02:24:42;4.35;;;4.05;;
23617;SDS011;18207;32.078;34.818;2023-06-22T02:27:13;4.57;;;4.18;;
23617;SDS011;18207;32.078;34.818;2023-06-22T02:29:43;3.92;;;3.63;;
23617;SDS011;18207;32.078;34.818;2023-06-22T02:32:15;4.40;;;4.10;;
23617;SDS011;18207;32.078;34.818;2023-06-22T02:34:45;4.22;;;3.75;;
23617;SDS011;18207;32.078;34.818;2023-06-22T02:37:16;4.55;;;4.18;;
23617;SDS011;18207;32.078;34.818;2023-06-22T02:39:46;4.75;;;4.35;;
23617;SDS011;18207;32.078;34.818;2023-06-22T02:42:17;4.90;;;4.40;;
23617;SDS011;18207;32.078;34.818;2023-06-22T02:44:48;5.13;;;4.63;;
23617;SDS011;18207;32.078;34.818;2023-06-22T02:47:20;4.22;;;3.92;;
23617;SDS011;18207;32.078;34.818;2023-06-22T02:49:50;4.75;;;4.35;;
23617;SDS011;18207;32.078;34.818;2023-06-22T02:52:21;4.95;;;4.55;;
23617;SDS011;18207;32.078;34.818;2023-06-22T02:54:51;5.60;;;5.10;;
23617;SDS011;18207;32.078;34.818;2023-06-22T02:57:22;5.10;;;4.60;;
23617;SDS011;18207;32.078;34.818;2023-06-22T02:59:52;5.30;;;4.80;;
23617;SDS011;18207;32.078;34.818;2023-06-22T03:02:24;5.47;;;4.97;;
23617;SDS011;18207;32.078;34.818;2023-06-22T03:04:54;5.65;;;5.15;;
23617;SDS011;18207;32.078;34.818;2023-06-22T03:07:25;5.68;;;5.18;;
23617;SDS011;18207;32.078;34.818;2023-06-22T03:09:57;5.57;;;5.07;;
23617;SDS011;18207;32.078;34.818;2023-06-22T03:12:27;5.47;;;5.05;;
23617;SDS011;18207;32.078;34.818;2023-06-22T03:14:56;5.43;;;4.93;;
23617;SDS011;18207;32.078;34.818;2023-06-22T03:17:28;5.60;;;5.10;;
23617;SDS011;18207;32.078;34.818;2023-06-22T03:19:59;5.93;;;5.35;;
23617;SDS011;18207;32.078;34.818;2023-06-22T03:22:33;4.97;;;4.57;;
23617;SDS011;18207;32.078;34.818;2023-06-22T03:25:04;5.50;;;5.00;;
23617;SDS011;18207;32.078;34.818;2023-06-22T03:27:40;5.00;;;4.60;;
23617;SDS011;18207;32.078;34.818;2023-06-22T03:30:11;5.28;;;4.85;;
23617;SDS011;18207;32.078;34.818;2023-06-22T03:32:43;5.47;;;5.07;;
23617;SDS011;18207;32.078;34.818;2023-06-22T03:35:14;5.43;;;5.03;;
23617;SDS011;18207;32.078;34.818;2023-06-22T03:37:44;5.38;;;4.97;;
23617;SDS011;18207;32.078;34.818;2023-06-22T03:40:13;5.15;;;4.75;;
23617;SDS011;18207;32.078;34.818;2023-06-22T03:42:44;5.43;;;5.03;;
23617;SDS011;18207;32.078;34.818;2023-06-22T03:45:15;5.20;;;4.80;;
23617;SDS011;18207;32.078;34.818;2023-06-22T03:47:48;4.85;;;4.45;;
23617;SDS011;18207;32.078;34.818;2023-06-22T03:50:18;5.68;;;5.18;;
23617;SDS011;18207;32.078;34.818;2023-06-22T03:52:49;5.20;;;4.80;;
23617;SDS011;18207;32.078;34.818;2023-06-22T03:55:19;4.70;;;4.40;;
23617;SDS011;18207;32.078;34.818;2023-06-22T03:57:50;4.93;;;4.53;;
23617;SDS011;18207;32.078;34.818;2023-06-22T04:00:21;5.20;;;4.80;;
23617;SDS011;18207;32.078;34.818;2023-06-22T04:02:53;4.55;;;4.25;;
23617;SDS011;18207;32.078;34.818;2023-06-22T04:05:24;4.63;;;4.22;;
23617;SDS011;18207;32.078;34.818;2023-06-22T04:07:54;4.30;;;4.00;;
23617;SDS011;18207;32.078;34.818;2023-06-22T04:10:24;4.72;;;4.32;;
23617;SDS011;18207;32.078;34.818;2023-06-22T04:12:54;4.50;;;4.20;;
23617;SDS011;18207;32.078;34.818;2023-06-22T04:15:25;4.88;;;4.47;;
23617;SDS011;18207;32.078;34.818;2023-06-22T04:17:56;4.55;;;4.20;;
23617;SDS011;18207;32.078;34.818;2023-06-22T04:20:27;4.10;;;3.78;;
23617;SDS011;18207;32.078;34.818;2023-06-22T04:22:59;4.85;;;4.45;;
23617;SDS011;18207;32.078;34.818;2023-06-22T04:25:29;5.28;;;4.88;;
23617;SDS011;18207;32.078;34.818;2023-06-22T04:27:59;5.13;;;4.72;;
23617;SDS011;18207;32.078;34.818;2023-06-22T04:30:32;4.95;;;4.55;;
23617;SDS011;18207;32.078;34.818;2023-06-22T04:33:04;4.80;;;4.40;;
23617;SDS011;18207;32.078;34.818;2023-06-22T04:35:34;5.07;;;4.68;;
23617;SDS011;18207;32.078;34.818;2023-06-22T04:38:08;4.90;;;4.50;;
23617;SDS011;18207;32.078;34.818;2023-06-22T04:40:40;4.88;;;4.47;;
23617;SDS011;18207;32.078;34.818;2023-06-22T04:43:10;4.60;;;4.30;;
23617;SDS011;18207;32.078;34.818;2023-06-22T04:45:41;4.75;;;4.43;;
23617;SDS011;18207;32.078;34.818;2023-06-22T04:48:13;4.57;;;4.18;;
23617;SDS011;18207;32.078;34.818;2023-06-22T04:50:44;4.60;;;4.30;;
23617;SDS011;18207;32.078;34.818;2023-06-22T04:53:14;4.65;;;4.35;;
23617;SDS011;18207;32.078;34.818;2023-06-22T04:55:45;4.82;;;4.07;;
23617;SDS011;18207;32.078;34.818;2023-06-22T04:58:16;4.05;;;3.75;;
23617;SDS011;18207;32.078;34.818;2023-06-22T05:00:46;3.88;;;3.55;;
23617;SDS011;18207;32.078;34.818;2023-06-22T05:03:20;3.92;;;3.63;;
23617;SDS011;18207;32.078;34.818;2023-06-22T05:05:53;3.42;;;3.22;;
23617;SDS011;18207;32.078;34.818;2023-06-22T05:08:23;3.63;;;3.33;;
23617;SDS011;18207;32.078;34.818;2023-06-22T05:10:55;3.15;;;2.95;;
23617;SDS011;18207;32.078;34.818;2023-06-22T05:13:31;3.22;;;2.92;;
23617;SDS011;18207;32.078;34.818;2023-06-22T05:16:02;3.33;;;3.13;;
23617;SDS011;18207;32.078;34.818;2023-06-22T05:18:35;3.33;;;3.13;;
23617;SDS011;18207;32.078;34.818;2023-06-22T05:21:05;3.83;;;3.30;;
23617;SDS011;18207;32.078;34.818;2023-06-22T05:23:35;3.50;;;3.20;;
23617;SDS011;18207;32.078;34.818;2023-06-22T05:26:05;3.42;;;2.97;;
23617;SDS011;18207;32.078;34.818;2023-06-22T05:28:37;3.53;;;3.33;;
23617;SDS011;18207;32.078;34.818;2023-06-22T05:31:06;3.40;;;3.20;;
23617;SDS011;18207;32.078;34.818;2023-06-22T05:33:38;3.17;;;2.97;;
23617;SDS011;18207;32.078;34.818;2023-06-22T05:36:09;3.40;;;3.17;;
23617;SDS011;18207;32.078;34.818;2023-06-22T05:38:39;3.15;;;2.95;;
23617;SDS011;18207;32.078;34.818;2023-06-22T05:41:11;3.00;;;2.80;;
23617;SDS011;18207;32.078;34.818;2023-06-22T05:43:42;3.40;;;3.10;;
23617;SDS011;18207;32.078;34.818;2023-06-22T05:46:12;3.30;;;3.00;;
23617;SDS011;18207;32.078;34.818;2023-06-22T05:48:44;3.25;;;2.92;;
23617;SDS011;18207;32.078;34.818;2023-06-22T05:51:14;2.88;;;2.67;;
23617;SDS011;18207;32.078;34.818;2023-06-22T05:53:44;2.97;;;2.78;;
23617;SDS011;18207;32.078;34.818;2023-06-22T05:56:16;2.53;;;2.42;;
23617;SDS011;18207;32.078;34.818;2023-06-22T05:58:47;2.70;;;2.55;;
23617;SDS011;18207;32.078;34.818;2023-06-22T06:01:17;2.90;;;2.70;;
23617;SDS011;18207;32.078;34.818;2023-06-22T06:03:49;2.90;;;2.70;;
23617;SDS011;18207;32.078;34.818;2023-06-22T06:06:20;2.88;;;2.67;;
23617;SDS011;18207;32.078;34.818;2023-06-22T06:08:55;2.80;;;2.60;;
23617;SDS011;18207;32.078;34.818;2023-06-22T06:11:26;2.20;;;2.10;;
23617;SDS011;18207;32.078;34.818;2023-06-22T06:13:57;2.30;;;2.20;;
23617;SDS011;18207;32.078;34.818;2023-06-22T06:16:27;2.28;;;2.17;;
23617;SDS011;18207;32.078;34.818;2023-06-22T06:18:59;2.00;;;1.90;;
23617;SDS011;18207;32.078;34.818;2023-06-22T06:21:29;2.40;;;2.30;;
23617;SDS011;18207;32.078;34.818;2023-06-22T06:23:59;2.10;;;2.00;;
23617;SDS011;18207;32.078;34.818;2023-06-22T06:26:30;2.25;;;2.10;;
23617;SDS011;18207;32.078;34.818;2023-06-22T06:29:00;2.40;;;2.20;;
23617;SDS011;18207;32.078;34.818;2023-06-22T06:31:30;2.10;;;2.00;;
23617;SDS011;18207;32.078;34.818;2023-06-22T06:34:02;1.98;;;1.88;;
23617;SDS011;18207;32.078;34.818;2023-06-22T06:36:32;1.90;;;1.80;;
23617;SDS011;18207;32.078;34.818;2023-06-22T06:39:02;1.88;;;1.77;;
23617;SDS011;18207;32.078;34.818;2023-06-22T06:41:33;1.77;;;1.67;;
23617;SDS011;18207;32.078;34.818;2023-06-22T06:44:03;1.80;;;1.70;;
23617;SDS011;18207;32.078;34.818;2023-06-22T06:46:33;1.80;;;1.70;;
23617;SDS011;18207;32.078;34.818;2023-06-22T06:49:06;2.00;;;1.90;;
23617;SDS011;18207;32.078;34.818;2023-06-22T06:51:37;1.73;;;1.63;;
23617;SDS011;18207;32.078;34.818;2023-06-22T06:54:07;1.90;;;1.80;;
23617;SDS011;18207;32.078;34.818;2023-06-22T06:56:37;1.75;;;1.65;;
23617;SDS011;18207;32.078;34.818;2023-06-22T06:59:15;1.90;;;1.80;;
23617;SDS011;18207;32.078;34.818;2023-06-22T07:01:45;1.55;;;1.50;;
23617;SDS011;18207;32.078;34.818;2023-06-22T07:04:17;1.40;;;1.40;;
23617;SDS011;18207;32.078;34.818;2023-06-22T07:06:47;1.83;;;1.73;;
23617;SDS011;18207;32.078;34.818;2023-06-22T07:09:17;1.48;;;1.48;;
23617;SDS011;18207;32.078;34.818;2023-06-22T07:11:47;2.03;;;1.92;;
23617;SDS011;18207;32.078;34.818;2023-06-22T07:14:18;1.70;;;1.60;;
23617;SDS011;18207;32.078;34.818;2023-06-22T07:16:49;2.17;;;1.80;;
23617;SDS011;18207;32.078;34.818;2023-06-22T07:19:25;1.70;;;1.60;;
23617;SDS011;18207;32.078;34.818;2023-06-22T07:21:58;1.80;;;1.70;;
23617;SDS011;18207;32.078;34.818;2023-06-22T07:24:28;1.98;;;1.88;;
23617;SDS011;18207;32.078;34.818;2023-06-22T07:26:59;1.85;;;1.75;;
23617;SDS011;18207;32.078;34.818;2023-06-22T07:29:31;1.98;;;1.88;;
23617;SDS011;18207;32.078;34.818;2023-06-22T07:32:02;1.83;;;1.73;;
23617;SDS011;18207;32.078;34.818;2023-06-22T07:34:36;1.95;;;1.85;;
23617;SDS011;18207;32.078;34.818;2023-06-22T07:37:06;1.95;;;1.85;;
23617;SDS011;18207;32.078;34.818;2023-06-22T07:39:36;2.20;;;2.00;;
23617;SDS011;18207;32.078;34.818;2023-06-22T07:42:06;1.95;;;1.85;;
23617;SDS011;18207;32.078;34.818;2023-06-22T07:44:37;1.98;;;1.88;;
23617;SDS011;18207;32.078;34.818;2023-06-22T07:47:08;2.00;;;1.90;;
23617;SDS011;18207;32.078;34.818;2023-06-22T07:49:40;1.88;;;1.77;;
23617;SDS011;18207;32.078;34.818;2023-06-22T07:52:11;1.90;;;1.80;;
23617;SDS011;18207;32.078;34.818;2023-06-22T07:54:41;1.80;;;1.70;;
23617;SDS011;18207;32.078;34.818;2023-06-22T07:57:11;2.05;;;1.95;;
23617;SDS011;18207;32.078;34.818;2023-06-22T07:59:42;1.80;;;1.70;;
23617;SDS011;18207;32.078;34.818;2023-06-22T08:02:12;2.00;;;1.90;;
23617;SDS011;18207;32.078;34.818;2023-06-22T08:04:44;1.85;;;1.75;;
23617;SDS011;18207;32.078;34.818;2023-06-22T08:07:14;1.90;;;1.80;;
23617;SDS011;18207;32.078;34.818;2023-06-22T08:09:47;1.85;;;1.75;;
23617;SDS011;18207;32.078;34.818;2023-06-22T08:12:17;1.73;;;1.63;;
23617;SDS011;18207;32.078;34.818;2023-06-22T08:14:48;2.10;;;2.00;;
23617;SDS011;18207;32.078;34.818;2023-06-22T08:17:19;1.83;;;1.73;;
23617;SDS011;18207;32.078;34.818;2023-06-22T08:19:51;1.90;;;1.80;;
23617;SDS011;18207;32.078;34.818;2023-06-22T08:22:21;1.73;;;1.67;;
23617;SDS011;18207;32.078;34.818;2023-06-22T08:24:53;1.85;;;1.75;;
23617;SDS011;18207;32.078;34.818;2023-06-22T08:27:22;1.80;;;1.70;;
23617;SDS011;18207;32.078;34.818;2023-06-22T08:29:55;1.70;;;1.60;;
23617;SDS011;18207;32.078;34.818;2023-06-22T08:32:26;1.38;;;1.38;;
23617;SDS011;18207;32.078;34.818;2023-06-22T08:35:02;1.75;;;1.67;;
23617;SDS011;18207;32.078;34.818;2023-06-22T08:37:32;2.00;;;1.90;;
23617;SDS011;18207;32.078;34.818;2023-06-22T08:40:03;2.10;;;1.90;;
23617;SDS011;18207;32.078;34.818;2023-06-22T08:42:37;1.65;;;1.55;;
23617;SDS011;18207;32.078;34.818;2023-06-22T08:45:10;1.80;;;1.70;;
23617;SDS011;18207;32.078;34.818;2023-06-22T08:47:41;1.80;;;1.70;;
23617;SDS011;18207;32.078;34.818;2023-06-22T08:50:14;1.70;;;1.60;;
23617;SDS011;18207;32.078;34.818;2023-06-22T08:52:44;1.35;;;1.35;;
23617;SDS011;18207;32.078;34.818;2023-06-22T08:55:15;1.50;;;1.40;;
23617;SDS011;18207;32.078;34.818;2023-06-22T08:57:46;1.70;;;1.60;;
23617;SDS011;18207;32.078;34.818;2023-06-22T09:00:16;1.63;;;1.52;;
23617;SDS011;18207;32.078;34.818;2023-06-22T09:02:48;1.77;;;1.67;;
23617;SDS011;18207;32.078;34.818;2023-06-22T09:05:20;1.70;;;1.60;;
23617;SDS011;18207;32.078;34.818;2023-06-22T09:07:52;1.70;;;1.60;;
23617;SDS011;18207;32.078;34.818;2023-06-22T09:10:23;1.70;;;1.60;;
23617;SDS011;18207;32.078;34.818;2023-06-22T09:12:54;1.42;;;1.42;;
23617;SDS011;18207;32.078;34.818;2023-06-22T09:15:26;1.77;;;1.67;;
23617;SDS011;18207;32.078;34.818;2023-06-22T09:17:56;1.30;;;1.30;;
23617;SDS011;18207;32.078;34.818;2023-06-22T09:20:29;1.58;;;1.50;;
23617;SDS011;18207;32.078;34.818;2023-06-22T09:22:59;1.38;;;1.38;;
23617;SDS011;18207;32.078;34.818;2023-06-22T09:25:30;1.25;;;1.20;;
23617;SDS011;18207;32.078;34.818;2023-06-22T09:28:00;1.70;;;1.60;;
23617;SDS011;18207;32.078;34.818;2023-06-22T09:30:30;1.35;;;1.35;;
23617;SDS011;18207;32.078;34.818;2023-06-22T09:33:00;1.52;;;1.52;;
23617;SDS011;18207;32.078;34.818;2023-06-22T09:35:32;1.50;;;1.50;;
23617;SDS011;18207;32.078;34.818;2023-06-22T09:38:02;1.27;;;1.27;;
23617;SDS011;18207;32.078;34.818;2023-06-22T09:40:33;1.40;;;1.40;;
23617;SDS011;18207;32.078;34.818;2023-06-22T09:43:06;1.67;;;1.58;;
23617;SDS011;18207;32.078;34.818;2023-06-22T09:45:37;1.63;;;1.52;;
23617;SDS011;18207;32.078;34.818;2023-06-22T09:48:08;1.50;;;1.40;;
23617;SDS011;18207;32.078;34.818;2023-06-22T09:50:41;1.40;;;1.40;;
23617;SDS011;18207;32.078;34.818;2023-06-22T09:53:11;1.30;;;1.30;;
23617;SDS011;18207;32.078;34.818;2023-06-22T09:55:42;1.33;;;1.33;;
23617;SDS011;18207;32.078;34.818;2023-06-22T09:58:12;1.30;;;1.30;;
23617;SDS011;18207;32.078;34.818;2023-06-22T10:00:42;1.60;;;1.50;;
23617;SDS011;18207;32.078;34.818;2023-06-22T10:03:13;1.48;;;1.38;;
23617;SDS011;18207;32.078;34.818;2023-06-22T10:05:45;1.70;;;1.60;;
23617;SDS011;18207;32.078;34.818;2023-06-22T10:08:15;1.55;;;1.45;;
23617;SDS011;18207;32.078;34.818;2023-06-22T10:10:46;1.50;;;1.40;;
23617;SDS011;18207;32.078;34.818;2023-06-22T10:13:19;1.50;;;1.40;;
23617;SDS011;18207;32.078;34.818;2023-06-22T10:15:49;2.15;;;1.48;;
23617;SDS011;18207;32.078;34.818;2023-06-22T10:18:20;1.38;;;1.27;;
23617;SDS011;18207;32.078;34.818;2023-06-22T10:20:52;1.60;;;1.50;;
23617;SDS011;18207;32.078;34.818;2023-06-22T10:23:22;1.40;;;1.40;;
23617;SDS011;18207;32.078;34.818;2023-06-22T10:25:52;1.20;;;1.20;;
23617;SDS011;18207;32.078;34.818;2023-06-22T10:28:24;1.00;;;1.00;;
23617;SDS011;18207;32.078;34.818;2023-06-22T10:30:58;1.17;;;1.17;;
23617;SDS011;18207;32.078;34.818;2023-06-22T10:33:28;1.35;;;1.30;;
23617;SDS011;18207;32.078;34.818;2023-06-22T10:36:01;1.60;;;1.50;;
23617;SDS011;18207;32.078;34.818;2023-06-22T10:38:31;1.40;;;1.40;;
23617;SDS011;18207;32.078;34.818;2023-06-22T10:41:02;1.30;;;1.20;;
23617;SDS011;18207;32.078;34.818;2023-06-22T10:43:32;1.30;;;1.30;;
23617;SDS011;18207;32.078;34.818;2023-06-22T10:46:02;1.00;;;1.00;;
23617;SDS011;18207;32.078;34.818;2023-06-22T10:48:33;1.40;;;1.30;;
23617;SDS011;18207;32.078;34.818;2023-06-22T10:51:05;1.45;;;1.40;;
23617;SDS011;18207;32.078;34.818;2023-06-22T10:53:35;1.30;;;1.30;;
23617;SDS011;18207;32.078;34.818;2023-06-22T10:56:05;1.05;;;1.05;;
23617;SDS011;18207;32.078;34.818;2023-06-22T10:58:36;1.60;;;1.50;;
23617;SDS011;18207;32.078;34.818;2023-06-22T11:01:06;2.40;;;1.33;;
23617;SDS011;18207;32.078;34.818;2023-06-22T11:03:55;1.52;;;1.40;;
23617;SDS011;18207;32.078;34.818;2023-06-22T11:06:28;1.60;;;1.50;;
23617;SDS011;18207;32.078;34.818;2023-06-22T11:08:58;1.30;;;1.20;;
23617;SDS011;18207;32.078;34.818;2023-06-22T11:11:51;1.23;;;1.23;;
23617;SDS011;18207;32.078;34.818;2023-06-22T11:14:21;1.25;;;1.20;;
23617;SDS011;18207;32.078;34.818;2023-06-22T11:16:52;1.23;;;1.23;;
23617;SDS011;18207;32.078;34.818;2023-06-22T11:19:23;1.27;;;1.27;;
23617;SDS011;18207;32.078;34.818;2023-06-22T11:21:55;1.40;;;1.30;;
23617;SDS011;18207;32.078;34.818;2023-06-22T11:24:25;1.60;;;1.50;;
23617;SDS011;18207;32.078;34.818;2023-06-22T11:26:55;1.10;;;1.10;;
23617;SDS011;18207;32.078;34.818;2023-06-22T11:29:25;1.40;;;1.40;;
23617;SDS011;18207;32.078;34.818;2023-06-22T11:32:04;1.38;;;1.30;;
23617;SDS011;18207;32.078;34.818;2023-06-22T11:34:38;1.70;;;1.60;;
23617;SDS011;18207;32.078;34.818;2023-06-22T11:37:10;1.67;;;1.58;;
23617;SDS011;18207;32.078;34.818;2023-06-22T11:39:42;1.60;;;1.50;;
23617;SDS011;18207;32.078;34.818;2023-06-22T11:42:19;1.42;;;1.35;;
23617;SDS011;18207;32.078;34.818;2023-06-22T11:44:50;1.38;;;1.33;;
23617;SDS011;18207;32.078;34.818;2023-06-22T11:47:22;1.55;;;1.45;;
23617;SDS011;18207;32.078;34.818;2023-06-22T11:49:52;1.50;;;1.40;;
23617;SDS011;18207;32.078;34.818;2023-06-22T11:52:23;1.58;;;1.48;;
23617;SDS011;18207;32.078;34.818;2023-06-22T11:54:54;1.25;;;1.25;;
23617;SDS011;18207;32.078;34.818;2023-06-22T11:57:26;1.35;;;1.35;;
23617;SDS011;18207;32.078;34.818;2023-06-22T11:59:56;1.40;;;1.40;;
23617;SDS011;18207;32.078;34.818;2023-06-22T12:02:27;1.63;;;1.52;;
23617;SDS011;18207;32.078;34.818;2023-06-22T12:04:57;1.55;;;1.48;;
23617;SDS011;18207;32.078;34.818;2023-06-22T12:07:33;1.33;;;1.33;;
23617;SDS011;18207;32.078;34.818;2023-06-22T12:10:04;1.35;;;1.35;;
23617;SDS011;18207;32.078;34.818;2023-06-22T12:12:35;1.55;;;1.45;;
23617;SDS011;18207;32.078;34.818;2023-06-22T12:15:06;1.20;;;1.20;;
23617;SDS011;18207;32.078;34.818;2023-06-22T12:17:37;1.20;;;1.20;;
23617;SDS011;18207;32.078;34.818;2023-06-22T12:20:08;1.30;;;1.30;;
23617;SDS011;18207;32.078;34.818;2023-06-22T12:22:41;1.60;;;1.50;;
23617;SDS011;18207;32.078;34.818;2023-06-22T12:25:12;1.42;;;1.40;;
23617;SDS011;18207;32.078;34.818;2023-06-22T12:27:43;1.55;;;1.45;;
23617;SDS011;18207;32.078;34.818;2023-06-22T12:30:13;1.50;;;1.40;;
23617;SDS011;18207;32.078;34.818;2023-06-22T12:32:45;1.20;;;1.20;;
23617;SDS011;18207;32.078;34.818;2023-06-22T12:35:16;1.23;;;1.23;;
23617;SDS011;18207;32.078;34.818;2023-06-22T12:37:48;1.60;;;1.50;;
23617;SDS011;18207;32.078;34.818;2023-06-22T12:40:18;1.30;;;1.30;;
23617;SDS011;18207;32.078;34.818;2023-06-22T12:42:48;1.60;;;1.50;;
23617;SDS011;18207;32.078;34.818;2023-06-22T12:45:19;1.25;;;1.25;;
23617;SDS011;18207;32.078;34.818;2023-06-22T12:47:49;1.60;;;1.50;;
23617;SDS011;18207;32.078;34.818;2023-06-22T12:50:19;1.30;;;1.30;;
23617;SDS011;18207;32.078;34.818;2023-06-22T12:52:51;1.42;;;1.40;;
23617;SDS011;18207;32.078;34.818;2023-06-22T12:55:22;1.30;;;1.30;;
23617;SDS011;18207;32.078;34.818;2023-06-22T12:57:52;1.52;;;1.42;;
23617;SDS011;18207;32.078;34.818;2023-06-22T13:00:23;1.20;;;1.20;;
23617;SDS011;18207;32.078;34.818;2023-06-22T13:02:54;1.33;;;1.23;;
23617;SDS011;18207;32.078;34.818;2023-06-22T13:05:24;1.15;;;1.15;;
23617;SDS011;18207;32.078;34.818;2023-06-22T13:07:56;1.70;;;1.60;;
23617;SDS011;18207;32.078;34.818;2023-06-22T13:10:27;1.40;;;1.40;;
23617;SDS011;18207;32.078;34.818;2023-06-22T13:12:57;1.63;;;1.52;;
23617;SDS011;18207;32.078;34.818;2023-06-22T13:15:28;1.50;;;1.40;;
23617;SDS011;18207;32.078;34.818;2023-06-22T13:17:58;1.45;;;1.33;;
23617;SDS011;18207;32.078;34.818;2023-06-22T13:20:28;1.30;;;1.30;;
23617;SDS011;18207;32.078;34.818;2023-06-22T13:23:00;1.17;;;1.17;;
23617;SDS011;18207;32.078;34.818;2023-06-22T13:25:31;1.30;;;1.30;;
23617;SDS011;18207;32.078;34.818;2023-06-22T13:28:01;1.40;;;1.40;;
23617;SDS011;18207;32.078;34.818;2023-06-22T13:30:35;1.23;;;1.23;;
23617;SDS011;18207;32.078;34.818;2023-06-22T13:33:06;1.35;;;1.30;;
23617;SDS011;18207;32.078;34.818;2023-06-22T13:35:36;1.15;;;1.15;;
23617;SDS011;18207;32.078;34.818;2023-06-22T13:38:11;1.55;;;1.45;;
23617;SDS011;18207;32.078;34.818;2023-06-22T13:40:42;1.30;;;1.30;;
23617;SDS011;18207;32.078;34.818;2023-06-22T13:43:14;1.58;;;1.50;;
23617;SDS011;18207;32.078;34.818;2023-06-22T13:45:45;1.35;;;1.27;;
23617;SDS011;18207;32.078;34.818;2023-06-22T13:48:16;1.30;;;1.25;;
23617;SDS011;18207;32.078;34.818;2023-06-22T13:50:46;1.25;;;1.25;;
23617;SDS011;18207;32.078;34.818;2023-06-22T13:53:19;1.40;;;1.40;;
23617;SDS011;18207;32.078;34.818;2023-06-22T13:55:49;1.42;;;1.35;;
23617;SDS011;18207;32.078;34.818;2023-06-22T13:58:20;1.63;;;1.52;;
23617;SDS011;18207;32.078;34.818;2023-06-22T14:00:50;1.27;;;1.20;;
23617;SDS011;18207;32.078;34.818;2023-06-22T14:03:22;1.38;;;1.33;;
23617;SDS011;18207;32.078;34.818;2023-06-22T14:05:53;1.50;;;1.45;;
23617;SDS011;18207;32.078;34.818;2023-06-22T14:08:27;1.50;;;1.40;;
23617;SDS011;18207;32.078;34.818;2023-06-22T14:11:07;1.52;;;1.42;;
23617;SDS011;18207;32.078;34.818;2023-06-22T14:13:38;1.75;;;1.65;;
23617;SDS011;18207;32.078;34.818;2023-06-22T14:16:09;1.90;;;1.80;;
23617;SDS011;18207;32.078;34.818;2023-06-22T14:18:42;1.90;;;1.80;;
23617;SDS011;18207;32.078;34.818;2023-06-22T14:21:13;2.00;;;1.90;;
23617;SDS011;18207;32.078;34.818;2023-06-22T14:23:45;1.92;;;1.83;;
23617;SDS011;18207;32.078;34.818;2023-06-22T14:26:16;1.70;;;1.65;;
23617;SDS011;18207;32.078;34.818;2023-06-22T14:28:46;1.75;;;1.65;;
23617;SDS011;18207;32.078;34.818;2023-06-22T14:31:18;1.70;;;1.60;;
23617;SDS011;18207;32.078;34.818;2023-06-22T14:33:49;1.80;;;1.70;;
23617;SDS011;18207;32.078;34.818;2023-06-22T14:36:19;1.60;;;1.55;;
23617;SDS011;18207;32.078;34.818;2023-06-22T14:38:51;1.55;;;1.55;;
23617;SDS011;18207;32.078;34.818;2023-06-22T14:41:22;1.65;;;1.55;;
23617;SDS011;18207;32.078;34.818;2023-06-22T14:43:52;1.50;;;1.50;;
23617;SDS011;18207;32.078;34.818;2023-06-22T14:46:23;1.55;;;1.45;;
23617;SDS011;18207;32.078;34.818;2023-06-22T14:48:53;1.65;;;1.60;;
23617;SDS011;18207;32.078;34.818;2023-06-22T14:51:24;1.50;;;1.40;;
23617;SDS011;18207;32.078;34.818;2023-06-22T14:54:01;1.48;;;1.45;;
23617;SDS011;18207;32.078;34.818;2023-06-22T14:56:31;1.38;;;1.38;;
23617;SDS011;18207;32.078;34.818;2023-06-22T14:59:02;1.38;;;1.27;;
23617;SDS011;18207;32.078;34.818;2023-06-22T15:01:32;1.85;;;1.55;;